This is the latest recevied weather packets stored in our database for station/object N2GWK. If no packets are shown the sender has not sent any weather packets the latest 10 day(s).
| Time | Temp. | Humidity | Pressure | Rain* | Wind** | Luminosity | Snow |
|---|---|---|---|---|---|---|---|
| 1778073918 | 10° C | 95% | 1012.7 hPa | 0 mm | - | - | - |
| 1778061919 | 10° C | 99% | 1009.6 hPa | 0.51 mm | - | - | - |
| 1778061322 | 10° C | 99% | 1009.6 hPa | 0.76 mm | - | - | - |
| 1778058329 | 10.56° C | 99% | 1008.7 hPa | 2.79 mm | - | - | - |
| 1778057731 | 10.56° C | 99% | 1009.2 hPa | 2.54 mm | - | - | - |
| 1778057137 | 10.56° C | 99% | 1009.2 hPa | 1.52 mm | - | - | - |
| 1778052924 | 12.22° C | 99% | 1007.3 hPa | 3.05 mm | - | - | - |
| 1778052328 | 12.78° C | 99% | 1007.1 hPa | 3.3 mm | - | - | - |
| 1778051122 | 15° C | 99% | 1006.8 hPa | 3.05 mm | - | - | - |
| 1778050520 | 15° C | 99% | 1006.8 hPa | 3.56 mm | - | - | - |
| 1778048123 | 15° C | 99% | 1006.7 hPa | 3.56 mm | - | - | - |
| 1778041527 | 15° C | 99% | 1006.8 hPa | 0.25 mm | - | - | - |
| 1778040329 | 15° C | 99% | 1006.9 hPa | 0 mm | - | - | - |
| 1778036127 | 15.56° C | 99% | 1008.2 hPa | 0.51 mm | - | - | - |
| 1778034321 | 15.56° C | 97% | 1008.6 hPa | 0.25 mm | - | - | - |
| 1778025929 | 17.22° C | 92% | 1007.4 hPa | 1.02 mm | - | - | - |
| 1778024731 | 18.33° C | 88% | 1007.6 hPa | 0.76 mm | - | - | - |
| 1778022930 | 20.56° C | 71% | 1007.7 hPa | 0 mm | - | - | - |
| 1778019925 | 21.67° C | 64% | 1008.1 hPa | 0 mm | - | - | - |
| 1778019343 | 21.67° C | 65% | 1008 hPa | 0 mm | - | - | - |
| 1778015131 | 20° C | 74% | 1008.6 hPa | 0 mm | - | - | - |
| 1778007333 | 21.11° C | 72% | 1010.3 hPa | 0 mm | - | - | - |
| 1778006129 | 21.67° C | 69% | 1010.5 hPa | 0 mm | - | - | - |
| 1778005551 | 22.22° C | 68% | 1010.3 hPa | 0 mm | - | - | - |
| 1778004917 | 21.67° C | 69% | 1010.4 hPa | 0 mm | - | - | - |
* Rain latest hour (hover to see other rain measurements)
** Current wind speed in m/s (hover to see current wind gust speed)